createdAt,value
2022-09-26T00:00:09.643Z,1009.48
2022-09-26T00:05:09.770Z,1009.43
2022-09-26T00:10:09.096Z,1009.39
2022-09-26T00:15:10.400Z,1009.41
2022-09-26T00:20:07.704Z,1009.36
2022-09-26T00:25:07.022Z,1009.35
2022-09-26T00:30:06.348Z,1009.37
2022-09-26T00:35:05.658Z,1009.34
2022-09-26T00:40:04.958Z,1009.34
2022-09-26T00:45:06.275Z,1009.42
2022-09-26T00:50:04.550Z,1009.27
2022-09-26T00:55:03.852Z,1009.12
2022-09-26T01:00:03.178Z,1009.14
2022-09-26T01:05:00.493Z,1009.04
2022-09-26T01:10:01.833Z,1008.99
2022-09-26T01:15:01.179Z,1008.90
2022-09-26T01:19:59.465Z,1008.86
2022-09-26T01:24:59.781Z,1008.85
2022-09-26T01:29:59.066Z,1008.80
2022-09-26T01:34:57.360Z,1008.80
2022-09-26T01:39:58.649Z,1008.79
2022-09-26T01:44:55.919Z,1008.73
2022-09-26T01:49:55.214Z,1008.70
2022-09-26T01:54:54.532Z,1008.71
2022-09-26T01:59:54.843Z,1008.67
2022-09-26T02:04:53.145Z,1008.71
2022-09-26T02:09:53.446Z,1008.66
2022-09-26T02:14:51.723Z,1008.63
2022-09-26T02:19:51.005Z,1008.65
2022-09-26T02:24:51.305Z,1008.65
2022-09-26T02:29:49.589Z,1008.71
2022-09-26T02:34:48.896Z,1008.70
2022-09-26T02:39:48.211Z,1008.52
2022-09-26T02:44:47.525Z,1008.54
2022-09-26T02:49:46.835Z,1008.43
2022-09-26T02:54:48.126Z,1008.48
2022-09-26T02:59:45.471Z,1008.29
2022-09-26T03:04:44.629Z,1008.33
2022-09-26T03:09:45.738Z,1008.25
2022-09-26T03:14:43.038Z,1008.16
2022-09-26T03:19:42.347Z,1008.06
2022-09-26T03:24:43.647Z,1008.08
2022-09-26T03:29:40.930Z,1008.16
2022-09-26T03:34:40.216Z,1008.12
2022-09-26T03:39:39.507Z,1008.17
2022-09-26T03:44:38.811Z,1008.01
2022-09-26T03:49:39.105Z,1007.98
2022-09-26T03:54:37.429Z,1008.03
2022-09-26T03:59:36.720Z,1007.96
2022-09-26T04:04:37.021Z,1007.86
2022-09-26T04:09:34.322Z,1007.84
2022-09-26T04:14:34.640Z,1007.74
2022-09-26T04:19:35.953Z,1007.68
2022-09-26T04:24:33.264Z,1007.59
2022-09-26T04:29:32.367Z,1007.62
2022-09-26T04:34:31.673Z,1007.58
2022-09-26T04:39:31.040Z,1007.57
2022-09-26T04:44:32.160Z,1007.56
2022-09-26T04:49:29.490Z,1007.48
2022-09-26T04:54:28.815Z,1007.40
2022-09-26T04:59:29.160Z,1007.29
2022-09-26T05:04:27.963Z,1007.21
2022-09-26T05:09:26.733Z,1007.17
2022-09-26T05:14:25.857Z,1007.20
2022-09-26T05:19:25.209Z,1007.15
2022-09-26T05:24:25.539Z,1007.15
2022-09-26T05:29:23.845Z,1007.20
2022-09-26T05:34:25.140Z,1007.07
2022-09-26T05:39:24.442Z,1007.11
2022-09-26T05:44:21.747Z,1007.10
2022-09-26T05:49:22.153Z,1007.10
2022-09-26T05:54:20.264Z,1007.07
2022-09-26T05:59:19.561Z,1006.97
2022-09-26T06:04:18.855Z,1007.13
2022-09-26T06:09:21.279Z,1007.16
2022-09-26T06:14:17.363Z,1007.17
2022-09-26T06:19:22.788Z,1007.24
2022-09-26T06:24:15.848Z,1007.29
2022-09-26T06:29:18.257Z,1007.25
2022-09-26T06:34:14.335Z,1007.09
2022-09-26T06:39:13.675Z,1007.05
2022-09-26T06:44:14.976Z,1007.10
2022-09-26T06:49:12.311Z,1007.22
2022-09-26T06:54:11.447Z,1007.20
2022-09-26T06:59:14.612Z,1007.19
2022-09-26T07:04:10.977Z,1007.22
2022-09-26T07:09:12.264Z,1007.15
2022-09-26T07:14:08.419Z,1007.15
2022-09-26T07:19:08.732Z,1007.12
2022-09-26T07:24:08.008Z,1007.14
2022-09-26T07:29:06.357Z,1007.11
2022-09-26T07:34:05.501Z,1007.14
2022-09-26T07:39:05.843Z,1007.10
2022-09-26T07:44:58.884Z,1007.05
2022-09-26T07:49:04.255Z,1007.06
2022-09-26T07:54:02.569Z,1007.08
2022-09-26T07:59:02.858Z,1007.15
2022-09-26T08:04:02.183Z,1007.37
2022-09-26T08:09:02.502Z,1007.37
2022-09-26T08:13:59.814Z,1007.50
2022-09-26T08:19:01.120Z,1007.40
2022-09-26T08:23:58.411Z,1007.33
2022-09-26T08:28:58.727Z,1007.29
2022-09-26T08:33:57.004Z,1007.24
2022-09-26T08:38:55.349Z,1007.25
2022-09-26T08:43:56.497Z,1007.28
2022-09-26T08:48:54.781Z,1007.23
2022-09-26T08:53:53.069Z,1007.32
2022-09-26T08:58:53.367Z,1007.28
2022-09-26T09:03:52.693Z,1007.27
2022-09-26T09:08:52.030Z,1007.25
2022-09-26T09:13:51.194Z,1007.31
2022-09-26T09:18:50.455Z,1007.33
2022-09-26T09:23:49.580Z,1007.25
2022-09-26T09:28:48.907Z,1007.26
2022-09-26T09:33:48.247Z,1007.29
2022-09-26T09:38:48.376Z,1007.16
2022-09-26T09:43:46.692Z,1007.05
2022-09-26T09:48:46.036Z,1007.03
2022-09-26T09:53:45.361Z,1006.92
2022-09-26T09:58:45.655Z,1006.87
2022-09-26T10:03:43.942Z,1006.83
2022-09-26T10:08:43.249Z,1006.75
2022-09-26T10:13:42.537Z,1006.69
2022-09-26T10:18:49.485Z,1006.70
2022-09-26T10:23:40.961Z,1006.64
2022-09-26T10:28:41.374Z,1006.59
2022-09-26T10:33:40.525Z,1006.56
2022-09-26T10:38:38.653Z,1006.56
2022-09-26T10:43:38.803Z,1006.52
2022-09-26T10:48:38.129Z,1006.60
2022-09-26T10:53:36.433Z,1006.48
2022-09-26T10:58:36.751Z,1006.45
2022-09-26T11:03:37.154Z,1006.28
2022-09-26T11:08:34.276Z,1006.15
2022-09-26T11:13:33.587Z,1006.00
2022-09-26T11:18:31.899Z,1006.00
2022-09-26T11:23:33.256Z,1005.95
2022-09-26T11:28:34.456Z,1005.93
2022-09-26T11:33:30.564Z,1005.76
2022-09-26T11:38:29.867Z,1005.69
2022-09-26T11:43:30.199Z,1005.58
2022-09-26T11:48:29.521Z,1005.46
2022-09-26T11:53:29.840Z,1005.37
2022-09-26T11:58:28.127Z,1005.26
2022-09-26T12:03:26.560Z,1005.22
2022-09-26T12:08:25.741Z,1005.17
2022-09-26T12:13:28.067Z,1005.02
2022-09-26T12:18:26.368Z,1005.00
2022-09-26T12:23:23.661Z,1004.79
2022-09-26T12:28:23.141Z,1004.73
2022-09-26T12:33:23.285Z,1004.64
2022-09-26T12:38:22.420Z,1004.57
2022-09-26T12:43:21.552Z,1004.41
2022-09-26T12:48:19.691Z,1004.31
2022-09-26T12:53:18.820Z,1004.30
2022-09-26T12:58:18.972Z,1004.23
2022-09-26T13:03:18.386Z,1004.18
2022-09-26T13:08:16.623Z,1004.01
2022-09-26T13:13:16.742Z,1003.92
2022-09-26T13:18:17.094Z,1003.84
2022-09-26T13:23:14.222Z,1003.79
2022-09-26T13:28:13.581Z,1003.67
2022-09-26T13:33:12.716Z,1003.57
2022-09-26T13:38:13.034Z,1003.56
2022-09-26T13:43:12.455Z,1003.57
2022-09-26T13:48:10.569Z,1003.58
2022-09-26T13:53:08.733Z,1003.51
2022-09-26T13:58:08.870Z,1003.43
2022-09-26T14:03:08.259Z,1003.30
2022-09-26T14:08:08.373Z,1003.32
2022-09-26T14:13:06.738Z,1003.26
2022-09-26T14:18:04.881Z,1003.19
2022-09-26T14:23:07.223Z,1003.20
2022-09-26T14:28:05.573Z,1003.20
2022-09-26T14:33:03.873Z,1003.19
2022-09-26T14:38:03.188Z,1003.18
2022-09-26T14:43:02.497Z,1003.25
2022-09-26T14:48:01.817Z,1003.24
2022-09-26T14:53:01.114Z,1003.30
2022-09-26T14:58:00.431Z,1003.29
2022-09-26T15:03:01.301Z,1003.21
2022-09-26T15:07:58.835Z,1003.18
2022-09-26T15:12:57.957Z,1003.11
2022-09-26T15:17:57.285Z,1003.05
2022-09-26T15:22:58.598Z,1002.99
2022-09-26T15:27:56.917Z,1003.00
2022-09-26T15:32:56.312Z,1002.94
2022-09-26T15:37:54.426Z,1002.94
2022-09-26T15:42:55.793Z,1002.93
2022-09-26T15:47:53.092Z,1002.85
2022-09-26T15:52:52.415Z,1002.87
2022-09-26T15:57:54.734Z,1002.90
2022-09-26T16:02:51.162Z,1002.87
2022-09-26T16:07:50.335Z,1002.93
2022-09-26T16:12:49.452Z,1002.83
2022-09-26T16:17:49.472Z,1002.87
2022-09-26T16:22:47.838Z,1002.88
2022-09-26T16:27:48.168Z,1002.95
2022-09-26T16:32:46.450Z,1002.82
2022-09-26T16:37:44.780Z,1002.88
2022-09-26T16:42:45.078Z,1002.85
2022-09-26T16:47:44.362Z,1002.97
2022-09-26T16:52:44.669Z,1002.98
2022-09-26T16:57:42.815Z,1002.99
2022-09-26T17:02:42.266Z,1002.89
2022-09-26T17:07:42.513Z,1002.88
2022-09-26T17:12:41.671Z,1002.96
2022-09-26T17:17:40.799Z,1002.82
2022-09-26T17:22:39.140Z,1002.88
2022-09-26T17:27:38.286Z,1002.80
2022-09-26T17:32:38.455Z,1002.81
2022-09-26T17:37:37.575Z,1002.87
2022-09-26T17:42:34.911Z,1002.76
2022-09-26T17:47:36.249Z,1002.79
2022-09-26T17:52:34.642Z,1002.73
2022-09-26T17:57:37.107Z,1002.74
2022-09-26T18:02:34.006Z,1002.75
2022-09-26T18:07:32.167Z,1002.79
2022-09-26T18:12:32.538Z,1002.86
2022-09-26T18:17:31.641Z,1002.67
2022-09-26T18:22:31.271Z,1002.73
2022-09-26T18:27:30.550Z,1002.73
2022-09-26T18:32:29.939Z,1002.68
2022-09-26T18:37:27.840Z,1002.71
2022-09-26T18:42:27.201Z,1002.61
2022-09-26T18:47:26.205Z,1002.42
2022-09-26T18:52:25.312Z,1002.53
2022-09-26T18:57:24.681Z,1002.35
2022-09-26T19:02:24.334Z,1002.39
2022-09-26T19:07:23.132Z,1002.38
2022-09-26T19:12:24.342Z,1002.36
2022-09-26T19:17:22.745Z,1002.34
2022-09-26T19:22:21.638Z,1002.17
2022-09-26T19:27:20.775Z,1002.14
2022-09-26T19:32:19.883Z,1002.19
2022-09-26T19:37:19.254Z,1002.10
2022-09-26T19:42:18.633Z,1002.03
2022-09-26T19:47:16.657Z,1001.91
2022-09-26T19:52:16.861Z,1001.93
2022-09-26T19:57:15.976Z,1001.76
2022-09-26T20:02:15.255Z,1001.65
2022-09-26T20:07:13.374Z,1001.66
2022-09-26T20:12:13.700Z,1001.74
2022-09-26T20:17:13.182Z,1001.60
2022-09-26T20:22:10.383Z,1001.54
2022-09-26T20:27:10.521Z,1001.48
2022-09-26T20:32:14.735Z,1001.36
2022-09-26T20:37:09.815Z,1001.32
2022-09-26T20:42:10.129Z,1001.07
2022-09-26T20:47:08.503Z,1000.91
2022-09-26T20:52:05.617Z,1000.75
2022-09-26T20:57:07.933Z,1000.75
2022-09-26T21:02:06.261Z,1000.59
2022-09-26T21:07:05.527Z,1000.52
2022-09-26T21:12:03.838Z,1000.40
2022-09-26T21:17:04.257Z,1000.32
2022-09-26T21:22:02.906Z,1000.31
2022-09-26T21:27:03.651Z,1000.44
2022-09-26T21:32:01.951Z,1000.38
2022-09-26T21:37:02.292Z,1000.33
2022-09-26T21:41:59.386Z,1000.25
2022-09-26T21:46:57.697Z,1000.19
2022-09-26T21:51:59.068Z,1000.11
2022-09-26T21:56:57.161Z,999.93
2022-09-26T22:01:56.591Z,999.86
2022-09-26T22:06:55.731Z,999.66
2022-09-26T22:11:56.044Z,999.70
2022-09-26T22:16:54.419Z,999.73
2022-09-26T22:21:54.539Z,999.56
2022-09-26T22:26:53.834Z,999.57
2022-09-26T22:31:52.127Z,999.65
2022-09-26T22:36:51.395Z,999.51
2022-09-26T22:41:50.704Z,999.41
2022-09-26T22:46:50.025Z,999.32
2022-09-26T22:51:49.347Z,999.25
2022-09-26T22:56:48.659Z,999.14
2022-09-26T23:01:48.078Z,999.15
2022-09-26T23:06:47.238Z,999.30
2022-09-26T23:11:46.566Z,999.22
2022-09-26T23:16:45.951Z,999.29
2022-09-26T23:21:45.079Z,999.23
2022-09-26T23:26:45.448Z,999.23
2022-09-26T23:31:43.561Z,999.26
2022-09-26T23:36:42.893Z,999.14
2022-09-26T23:41:43.214Z,999.15
2022-09-26T23:46:42.520Z,999.11
2022-09-26T23:51:40.835Z,999.01
2022-09-26T23:56:40.938Z,998.91
